sensor_id;sensor_type;location;lat;lon;timestamp;pressure;altitude;pressure_sealevel;temperature;humidity
74228;BME280;62587;52.352;5.006;2022-08-01T00:00:33;101630.41;;;25.01;57.81
74228;BME280;62587;52.352;5.006;2022-08-01T00:02:58;101626.78;;;25.02;57.43
74228;BME280;62587;52.352;5.006;2022-08-01T00:05:23;101619.59;;;25.02;57.68
74228;BME280;62587;52.352;5.006;2022-08-01T00:07:49;101622.28;;;25.02;57.60
74228;BME280;62587;52.352;5.006;2022-08-01T00:10:16;101616.78;;;25.04;57.61
74228;BME280;62587;52.352;5.006;2022-08-01T00:12:42;101623.88;;;25.05;57.54
74228;BME280;62587;52.352;5.006;2022-08-01T00:15:09;101637.28;;;25.05;57.70
74228;BME280;62587;52.352;5.006;2022-08-01T00:17:35;101626.16;;;24.98;57.73
74228;BME280;62587;52.352;5.006;2022-08-01T00:20:01;101632.50;;;24.97;57.90
74228;BME280;62587;52.352;5.006;2022-08-01T00:22:30;101624.91;;;24.91;57.89
74228;BME280;62587;52.352;5.006;2022-08-01T00:24:55;101635.28;;;24.96;58.04
74228;BME280;62587;52.352;5.006;2022-08-01T00:27:20;101629.56;;;25.00;57.73
74228;BME280;62587;52.352;5.006;2022-08-01T00:29:46;101645.41;;;25.03;57.76
74228;BME280;62587;52.352;5.006;2022-08-01T00:32:11;101638.59;;;24.99;57.99
74228;BME280;62587;52.352;5.006;2022-08-01T00:34:36;101643.94;;;24.99;57.94
74228;BME280;62587;52.352;5.006;2022-08-01T00:37:02;101637.00;;;24.97;58.10
74228;BME280;62587;52.352;5.006;2022-08-01T00:39:27;101630.69;;;24.98;58.00
74228;BME280;62587;52.352;5.006;2022-08-01T00:41:52;101643.09;;;24.99;57.72
74228;BME280;62587;52.352;5.006;2022-08-01T00:44:17;101633.38;;;24.98;57.87
74228;BME280;62587;52.352;5.006;2022-08-01T00:46:43;101641.88;;;25.03;57.58
74228;BME280;62587;52.352;5.006;2022-08-01T00:49:08;101632.13;;;25.02;57.77
74228;BME280;62587;52.352;5.006;2022-08-01T00:51:33;101637.59;;;25.00;57.69
74228;BME280;62587;52.352;5.006;2022-08-01T00:53:59;101655.03;;;24.95;57.92
74228;BME280;62587;52.352;5.006;2022-08-01T00:56:26;101650.41;;;24.97;57.74
74228;BME280;62587;52.352;5.006;2022-08-01T00:58:52;101640.78;;;24.94;57.86
74228;BME280;62587;52.352;5.006;2022-08-01T01:01:18;101636.28;;;24.95;57.71
74228;BME280;62587;52.352;5.006;2022-08-01T01:03:46;101641.28;;;24.99;57.83
74228;BME280;62587;52.352;5.006;2022-08-01T01:08:43;101647.22;;;24.92;57.98
74228;BME280;62587;52.352;5.006;2022-08-01T01:11:24;101652.69;;;24.90;57.98
74228;BME280;62587;52.352;5.006;2022-08-01T01:13:54;101649.03;;;24.91;58.14
74228;BME280;62587;52.352;5.006;2022-08-01T01:16:22;101645.25;;;24.94;58.00
74228;BME280;62587;52.352;5.006;2022-08-01T01:18:55;101641.41;;;24.98;57.69
74228;BME280;62587;52.352;5.006;2022-08-01T01:27:18;101647.94;;;24.94;57.78
74228;BME280;62587;52.352;5.006;2022-08-01T01:29:53;101649.75;;;24.93;57.53
74228;BME280;62587;52.352;5.006;2022-08-01T01:32:29;101641.84;;;24.92;57.59
74228;BME280;62587;52.352;5.006;2022-08-01T01:35:00;101651.34;;;24.96;57.51
74228;BME280;62587;52.352;5.006;2022-08-01T01:37:26;101646.00;;;24.96;57.59
74228;BME280;62587;52.352;5.006;2022-08-01T01:39:54;101649.16;;;24.90;57.66
74228;BME280;62587;52.352;5.006;2022-08-01T01:42:20;101650.84;;;24.91;57.51
74228;BME280;62587;52.352;5.006;2022-08-01T01:44:46;101643.16;;;24.86;57.60
74228;BME280;62587;52.352;5.006;2022-08-01T01:47:14;101642.22;;;24.87;57.76
74228;BME280;62587;52.352;5.006;2022-08-01T01:49:44;101650.75;;;24.92;57.48
74228;BME280;62587;52.352;5.006;2022-08-01T01:52:12;101649.16;;;24.90;57.40
74228;BME280;62587;52.352;5.006;2022-08-01T01:54:46;101646.50;;;24.90;57.48
74228;BME280;62587;52.352;5.006;2022-08-01T01:57:14;101646.84;;;24.85;57.48
74228;BME280;62587;52.352;5.006;2022-08-01T01:59:41;101650.97;;;24.89;57.38
74228;BME280;62587;52.352;5.006;2022-08-01T02:02:08;101652.81;;;24.89;57.51
74228;BME280;62587;52.352;5.006;2022-08-01T02:04:40;101654.28;;;24.93;57.39
74228;BME280;62587;52.352;5.006;2022-08-01T02:07:09;101650.63;;;24.94;57.18
74228;BME280;62587;52.352;5.006;2022-08-01T02:09:37;101650.75;;;24.92;57.19
74228;BME280;62587;52.352;5.006;2022-08-01T02:12:03;101655.97;;;24.94;57.10
74228;BME280;62587;52.352;5.006;2022-08-01T02:14:32;101657.72;;;24.95;57.13
74228;BME280;62587;52.352;5.006;2022-08-01T02:17:00;101667.78;;;24.91;57.00
74228;BME280;62587;52.352;5.006;2022-08-01T02:19:29;101662.44;;;24.91;57.23
74228;BME280;62587;52.352;5.006;2022-08-01T02:22:02;101660.75;;;24.90;57.21
74228;BME280;62587;52.352;5.006;2022-08-01T02:24:42;101660.63;;;24.92;57.29
74228;BME280;62587;52.352;5.006;2022-08-01T02:27:11;101660.63;;;24.92;57.06
74228;BME280;62587;52.352;5.006;2022-08-01T02:29:42;101666.69;;;24.94;56.91
74228;BME280;62587;52.352;5.006;2022-08-01T02:32:12;101669.28;;;24.95;57.11
74228;BME280;62587;52.352;5.006;2022-08-01T02:34:41;101659.53;;;24.94;56.93
74228;BME280;62587;52.352;5.006;2022-08-01T02:37:07;101670.38;;;24.93;57.03
74228;BME280;62587;52.352;5.006;2022-08-01T02:39:35;101663.78;;;24.86;57.27
74228;BME280;62587;52.352;5.006;2022-08-01T02:42:05;101664.25;;;24.91;57.28
74228;BME280;62587;52.352;5.006;2022-08-01T02:44:34;101666.09;;;24.90;57.34
74228;BME280;62587;52.352;5.006;2022-08-01T02:47:02;101671.56;;;24.89;57.06
74228;BME280;62587;52.352;5.006;2022-08-01T02:49:31;101670.59;;;24.90;57.15
74228;BME280;62587;52.352;5.006;2022-08-01T02:51:59;101669.75;;;24.89;57.21
74228;BME280;62587;52.352;5.006;2022-08-01T02:54:26;101678.00;;;24.86;57.36
74228;BME280;62587;52.352;5.006;2022-08-01T02:56:54;101669.88;;;24.88;57.13
74228;BME280;62587;52.352;5.006;2022-08-01T02:59:22;101662.44;;;24.91;57.10
74228;BME280;62587;52.352;5.006;2022-08-01T03:01:52;101659.66;;;24.93;57.19
74228;BME280;62587;52.352;5.006;2022-08-01T03:04:20;101667.69;;;24.93;57.04
74228;BME280;62587;52.352;5.006;2022-08-01T03:06:47;101672.06;;;24.94;57.13
74228;BME280;62587;52.352;5.006;2022-08-01T03:09:12;101667.56;;;24.94;56.92
74228;BME280;62587;52.352;5.006;2022-08-01T03:11:40;101674.88;;;24.92;57.11
74228;BME280;62587;52.352;5.006;2022-08-01T03:14:08;101672.19;;;24.92;57.11
74228;BME280;62587;52.352;5.006;2022-08-01T03:16:37;101677.53;;;24.92;57.01
74228;BME280;62587;52.352;5.006;2022-08-01T03:19:03;101682.03;;;24.92;57.20
74228;BME280;62587;52.352;5.006;2022-08-01T03:21:31;101679.38;;;24.92;57.29
74228;BME280;62587;52.352;5.006;2022-08-01T03:24:00;101670.47;;;24.91;57.00
74228;BME280;62587;52.352;5.006;2022-08-01T03:26:28;101676.69;;;24.92;57.03
74228;BME280;62587;52.352;5.006;2022-08-01T03:28:56;101677.66;;;24.91;57.00
74228;BME280;62587;52.352;5.006;2022-08-01T03:31:23;101678.50;;;24.91;57.15
74228;BME280;62587;52.352;5.006;2022-08-01T03:33:49;101681.19;;;24.91;57.07
74228;BME280;62587;52.352;5.006;2022-08-01T03:36:15;101673.41;;;24.88;57.14
74228;BME280;62587;52.352;5.006;2022-08-01T03:38:43;101677.53;;;24.92;57.07
74228;BME280;62587;52.352;5.006;2022-08-01T03:41:13;101679.50;;;24.90;57.08
74228;BME280;62587;52.352;5.006;2022-08-01T03:43:45;101683.34;;;24.86;57.07
74228;BME280;62587;52.352;5.006;2022-08-01T03:46:17;101689.34;;;24.90;57.22
74228;BME280;62587;52.352;5.006;2022-08-01T03:48:47;101683.00;;;24.91;57.27
74228;BME280;62587;52.352;5.006;2022-08-01T03:51:14;101684.00;;;24.90;57.02
74228;BME280;62587;52.352;5.006;2022-08-01T03:53:42;101689.56;;;24.87;57.34
74228;BME280;62587;52.352;5.006;2022-08-01T03:56:08;101685.31;;;24.84;57.17
74228;BME280;62587;52.352;5.006;2022-08-01T03:58:36;101683.13;;;24.89;57.05
74228;BME280;62587;52.352;5.006;2022-08-01T04:01:03;101688.84;;;24.85;57.25
74228;BME280;62587;52.352;5.006;2022-08-01T04:03:30;101692.03;;;24.90;57.02
74228;BME280;62587;52.352;5.006;2022-08-01T04:05:57;101697.16;;;24.93;56.93
74228;BME280;62587;52.352;5.006;2022-08-01T04:08:22;101696.16;;;24.94;56.91
74228;BME280;62587;52.352;5.006;2022-08-01T04:10:48;101699.94;;;24.91;57.05
74228;BME280;62587;52.352;5.006;2022-08-01T04:13:13;101700.19;;;24.88;57.14
74228;BME280;62587;52.352;5.006;2022-08-01T04:15:38;101698.34;;;24.89;57.05
74228;BME280;62587;52.352;5.006;2022-08-01T04:18:04;101699.06;;;24.91;56.98
74228;BME280;62587;52.352;5.006;2022-08-01T04:20:31;101700.06;;;24.90;57.17
74228;BME280;62587;52.352;5.006;2022-08-01T04:22:57;101697.38;;;24.90;57.14
74228;BME280;62587;52.352;5.006;2022-08-01T04:25:29;101701.03;;;24.89;57.04
74228;BME280;62587;52.352;5.006;2022-08-01T04:27:58;101698.34;;;24.89;57.07
74228;BME280;62587;52.352;5.006;2022-08-01T04:30:31;101686.28;;;24.83;57.24
74228;BME280;62587;52.352;5.006;2022-08-01T04:33:00;101689.34;;;24.90;57.15
74228;BME280;62587;52.352;5.006;2022-08-01T04:35:26;101680.16;;;24.81;57.06
74228;BME280;62587;52.352;5.006;2022-08-01T04:37:53;101694.72;;;24.90;57.15
74228;BME280;62587;52.352;5.006;2022-08-01T04:40:19;101686.38;;;24.82;57.30
74228;BME280;62587;52.352;5.006;2022-08-01T04:42:47;101697.53;;;24.88;57.16
74228;BME280;62587;52.352;5.006;2022-08-01T04:45:14;101710.06;;;24.88;57.11
74228;BME280;62587;52.352;5.006;2022-08-01T04:47:40;101716.84;;;24.81;57.30
74228;BME280;62587;52.352;5.006;2022-08-01T04:50:07;101715.97;;;24.80;57.35
74228;BME280;62587;52.352;5.006;2022-08-01T04:52:34;101712.75;;;24.75;57.54
74228;BME280;62587;52.352;5.006;2022-08-01T04:54:59;101718.53;;;24.82;57.37
74228;BME280;62587;52.352;5.006;2022-08-01T04:57:25;101723.81;;;24.83;57.44
74228;BME280;62587;52.352;5.006;2022-08-01T04:59:50;101726.34;;;24.85;57.38
74228;BME280;62587;52.352;5.006;2022-08-01T05:02:22;101729.03;;;24.85;57.51
74228;BME280;62587;52.352;5.006;2022-08-01T05:04:48;101726.69;;;24.80;57.64
74228;BME280;62587;52.352;5.006;2022-08-01T05:07:13;101726.69;;;24.80;57.43
74228;BME280;62587;52.352;5.006;2022-08-01T05:09:41;101733.66;;;24.83;57.37
74228;BME280;62587;52.352;5.006;2022-08-01T05:12:08;101727.66;;;24.79;57.36
74228;BME280;62587;52.352;5.006;2022-08-01T05:14:34;101729.47;;;24.79;57.40
74228;BME280;62587;52.352;5.006;2022-08-01T05:17:01;101739.88;;;24.83;57.14
74228;BME280;62587;52.352;5.006;2022-08-01T05:19:31;101732.66;;;24.84;57.17
74228;BME280;62587;52.352;5.006;2022-08-01T05:22:00;101728.06;;;24.86;57.33
74228;BME280;62587;52.352;5.006;2022-08-01T05:24:27;101728.28;;;24.83;57.02
74228;BME280;62587;52.352;5.006;2022-08-01T05:26:54;101740.59;;;24.85;57.21
74228;BME280;62587;52.352;5.006;2022-08-01T05:29:19;101737.78;;;24.87;56.94
74228;BME280;62587;52.352;5.006;2022-08-01T05:31:45;101736.09;;;24.86;57.18
74228;BME280;62587;52.352;5.006;2022-08-01T05:34:10;101742.56;;;24.83;57.16
74228;BME280;62587;52.352;5.006;2022-08-01T05:36:35;101744.25;;;24.84;57.04
74228;BME280;62587;52.352;5.006;2022-08-01T05:39:03;101748.00;;;24.82;57.24
74228;BME280;62587;52.352;5.006;2022-08-01T05:41:28;101750.81;;;24.80;57.04
74228;BME280;62587;52.352;5.006;2022-08-01T05:43:54;101743.09;;;24.76;57.19
74228;BME280;62587;52.352;5.006;2022-08-01T05:46:19;101756.16;;;24.80;57.21
74228;BME280;62587;52.352;5.006;2022-08-01T05:48:45;101764.06;;;24.82;57.08
74228;BME280;62587;52.352;5.006;2022-08-01T05:51:10;101766.75;;;24.82;56.90
74228;BME280;62587;52.352;5.006;2022-08-01T05:53:35;101761.63;;;24.79;57.07
74228;BME280;62587;52.352;5.006;2022-08-01T05:56:01;101766.97;;;24.79;57.00
74228;BME280;62587;52.352;5.006;2022-08-01T05:58:29;101769.56;;;24.80;56.89
74228;BME280;62587;52.352;5.006;2022-08-01T06:00:54;101774.91;;;24.80;56.86
74228;BME280;62587;52.352;5.006;2022-08-01T06:03:20;101774.91;;;24.80;56.93
74228;BME280;62587;52.352;5.006;2022-08-01T06:05:45;101778.19;;;24.84;56.87
74228;BME280;62587;52.352;5.006;2022-08-01T06:08:10;101774.69;;;24.83;56.63
74228;BME280;62587;52.352;5.006;2022-08-01T06:10:36;101774.06;;;24.80;56.82
74228;BME280;62587;52.352;5.006;2022-08-01T06:13:01;101777.69;;;24.79;56.82
74228;BME280;62587;52.352;5.006;2022-08-01T06:15:29;101781.88;;;24.83;56.41
74228;BME280;62587;52.352;5.006;2022-08-01T06:17:55;101777.59;;;24.80;56.47
74228;BME280;62587;52.352;5.006;2022-08-01T06:20:20;101784.44;;;24.84;56.27
74228;BME280;62587;52.352;5.006;2022-08-01T06:22:45;101779.19;;;24.83;56.17
74228;BME280;62587;52.352;5.006;2022-08-01T06:25:11;101779.19;;;24.83;56.39
74228;BME280;62587;52.352;5.006;2022-08-01T06:27:36;101785.41;;;24.83;56.13
74228;BME280;62587;52.352;5.006;2022-08-01T06:30:03;101784.78;;;24.80;56.29
74228;BME280;62587;52.352;5.006;2022-08-01T06:32:29;101784.78;;;24.80;56.22
74228;BME280;62587;52.352;5.006;2022-08-01T06:34:54;101784.78;;;24.80;55.95
74228;BME280;62587;52.352;5.006;2022-08-01T06:37:20;101784.03;;;24.78;56.03
74228;BME280;62587;52.352;5.006;2022-08-01T06:39:46;101789.19;;;24.81;55.81
74228;BME280;62587;52.352;5.006;2022-08-01T06:42:12;101788.31;;;24.80;55.55
74228;BME280;62587;52.352;5.006;2022-08-01T06:44:39;101791.00;;;24.80;55.50
74228;BME280;62587;52.352;5.006;2022-08-01T06:47:05;101789.91;;;24.83;55.32
74228;BME280;62587;52.352;5.006;2022-08-01T06:49:30;101799.75;;;24.82;55.04
74228;BME280;62587;52.352;5.006;2022-08-01T06:51:55;101800.72;;;24.81;55.08
74228;BME280;62587;52.352;5.006;2022-08-01T06:54:21;101800.50;;;24.84;55.13
74228;BME280;62587;52.352;5.006;2022-08-01T06:56:46;101801.78;;;24.79;55.00
74228;BME280;62587;52.352;5.006;2022-08-01T06:59:11;101813.03;;;24.84;54.88
74228;BME280;62587;52.352;5.006;2022-08-01T07:01:36;101815.63;;;24.85;54.88
74228;BME280;62587;52.352;5.006;2022-08-01T07:04:03;101811.22;;;24.84;54.75
74228;BME280;62587;52.352;5.006;2022-08-01T07:06:28;101811.94;;;24.86;54.54
74228;BME280;62587;52.352;5.006;2022-08-01T07:08:53;101811.56;;;24.80;54.63
74228;BME280;62587;52.352;5.006;2022-08-01T07:11:20;101812.28;;;24.82;54.35
74228;BME280;62587;52.352;5.006;2022-08-01T07:13:46;101815.50;;;24.87;54.44
74228;BME280;62587;52.352;5.006;2022-08-01T07:16:13;101812.28;;;24.82;54.43
74228;BME280;62587;52.352;5.006;2022-08-01T07:18:38;101822.78;;;24.85;54.35
74228;BME280;62587;52.352;5.006;2022-08-01T07:21:04;101824.25;;;24.89;54.07
74228;BME280;62587;52.352;5.006;2022-08-01T07:23:29;101816.22;;;24.89;53.94
74228;BME280;62587;52.352;5.006;2022-08-01T07:25:54;101818.91;;;24.89;54.08
74228;BME280;62587;52.352;5.006;2022-08-01T07:28:20;101814.00;;;24.83;53.97
74228;BME280;62587;52.352;5.006;2022-08-01T07:30:45;101816.06;;;24.79;54.29
74228;BME280;62587;52.352;5.006;2022-08-01T07:33:10;101819.16;;;24.86;53.95
74228;BME280;62587;52.352;5.006;2022-08-01T07:35:36;101820.13;;;24.85;53.97
74228;BME280;62587;52.352;5.006;2022-08-01T07:38:04;101823.44;;;24.88;53.85
74228;BME280;62587;52.352;5.006;2022-08-01T07:40:29;101821.06;;;24.84;53.87
74228;BME280;62587;52.352;5.006;2022-08-01T07:42:55;101833.63;;;24.83;53.91
74228;BME280;62587;52.352;5.006;2022-08-01T07:45:20;101830.81;;;24.85;53.98
74228;BME280;62587;52.352;5.006;2022-08-01T07:47:46;101832.44;;;24.87;53.95
74228;BME280;62587;52.352;5.006;2022-08-01T07:50:12;101833.50;;;24.85;53.77
74228;BME280;62587;52.352;5.006;2022-08-01T07:52:38;101844.63;;;24.91;53.78
74228;BME280;62587;52.352;5.006;2022-08-01T07:55:04;101826.44;;;24.84;53.63
74228;BME280;62587;52.352;5.006;2022-08-01T07:57:29;101845.69;;;24.89;53.59
74228;BME280;62587;52.352;5.006;2022-08-01T07:59:55;101852.66;;;24.91;53.51
74228;BME280;62587;52.352;5.006;2022-08-01T08:02:20;101848.38;;;24.89;53.58
74228;BME280;62587;52.352;5.006;2022-08-01T08:04:45;101844.22;;;24.85;53.50
74228;BME280;62587;52.352;5.006;2022-08-01T08:07:11;101846.44;;;24.91;53.30
74228;BME280;62587;52.352;5.006;2022-08-01T08:09:36;101844.97;;;24.87;53.43
74228;BME280;62587;52.352;5.006;2022-08-01T08:12:01;101850.53;;;24.84;53.40
74228;BME280;62587;52.352;5.006;2022-08-01T08:14:27;101860.41;;;24.83;53.62
74228;BME280;62587;52.352;5.006;2022-08-01T08:16:52;101859.56;;;24.83;53.27
74228;BME280;62587;52.352;5.006;2022-08-01T08:19:18;101862.97;;;24.85;53.36
74228;BME280;62587;52.352;5.006;2022-08-01T08:21:43;101863.94;;;24.84;53.43
74228;BME280;62587;52.352;5.006;2022-08-01T08:24:09;101852.03;;;24.88;53.27
74228;BME280;62587;52.352;5.006;2022-08-01T08:26:50;101869.72;;;24.90;53.05
74228;BME280;62587;52.352;5.006;2022-08-01T08:29:16;101868.72;;;24.91;52.97
74228;BME280;62587;52.352;5.006;2022-08-01T08:31:42;101877.63;;;24.92;52.68
74228;BME280;62587;52.352;5.006;2022-08-01T08:34:07;101877.63;;;24.92;52.83
74228;BME280;62587;52.352;5.006;2022-08-01T08:36:32;101869.06;;;24.87;52.57
74228;BME280;62587;52.352;5.006;2022-08-01T08:38:58;101868.84;;;24.90;52.59
74228;BME280;62587;52.352;5.006;2022-08-01T08:41:29;101866.31;;;24.88;52.35
74228;BME280;62587;52.352;5.006;2022-08-01T08:43:55;101874.00;;;24.93;52.41
74228;BME280;62587;52.352;5.006;2022-08-01T08:46:23;101879.97;;;24.96;52.24
74228;BME280;62587;52.352;5.006;2022-08-01T08:48:51;101879.09;;;24.96;52.10
74228;BME280;62587;52.352;5.006;2022-08-01T08:51:17;101881.91;;;24.94;52.06
74228;BME280;62587;52.352;5.006;2022-08-01T08:53:46;101883.84;;;24.92;52.31
74228;BME280;62587;52.352;5.006;2022-08-01T08:56:13;101883.84;;;24.92;52.08
74228;BME280;62587;52.352;5.006;2022-08-01T08:58:40;101885.53;;;24.93;52.18
74228;BME280;62587;52.352;5.006;2022-08-01T09:01:07;101886.31;;;24.95;52.07
74228;BME280;62587;52.352;5.006;2022-08-01T09:03:34;101888.00;;;24.96;52.16
74228;BME280;62587;52.352;5.006;2022-08-01T09:05:59;101887.66;;;25.01;51.76
74228;BME280;62587;52.352;5.006;2022-08-01T09:08:25;101897.44;;;25.02;51.75
74228;BME280;62587;52.352;5.006;2022-08-01T09:10:50;101904.00;;;24.98;51.87
74228;BME280;62587;52.352;5.006;2022-08-01T09:13:15;101902.13;;;24.98;51.78
74228;BME280;62587;52.352;5.006;2022-08-01T09:15:46;101902.03;;;25.00;51.77
74228;BME280;62587;52.352;5.006;2022-08-01T09:21:17;101896.25;;;24.93;51.85
74228;BME280;62587;52.352;5.006;2022-08-01T09:23:51;101904.28;;;24.93;51.78
74228;BME280;62587;52.352;5.006;2022-08-01T09:26:38;101899.94;;;24.92;51.88
74228;BME280;62587;52.352;5.006;2022-08-01T09:29:05;101900.66;;;24.94;51.61
74228;BME280;62587;52.352;5.006;2022-08-01T09:31:39;101912.25;;;24.95;51.72
74228;BME280;62587;52.352;5.006;2022-08-01T09:34:06;101919.41;;;24.94;51.61
74228;BME280;62587;52.352;5.006;2022-08-01T09:36:50;101910.53;;;24.94;51.61
74228;BME280;62587;52.352;5.006;2022-08-01T09:39:23;101919.28;;;24.96;51.61
74228;BME280;62587;52.352;5.006;2022-08-01T09:41:49;101917.59;;;24.95;51.63
74228;BME280;62587;52.352;5.006;2022-08-01T09:44:16;101926.50;;;24.95;51.44
74228;BME280;62587;52.352;5.006;2022-08-01T09:47:00;101932.69;;;24.96;51.44
74228;BME280;62587;52.352;5.006;2022-08-01T09:49:31;101930.00;;;24.96;51.26
74228;BME280;62587;52.352;5.006;2022-08-01T09:51:58;101929.94;;;24.97;51.29
74228;BME280;62587;52.352;5.006;2022-08-01T09:54:32;101927.00;;;25.00;51.23
74228;BME280;62587;52.352;5.006;2022-08-01T09:57:28;101933.34;;;24.99;51.17
74228;BME280;62587;52.352;5.006;2022-08-01T09:59:56;101936.03;;;24.99;51.26
74228;BME280;62587;52.352;5.006;2022-08-01T10:02:33;101939.97;;;25.06;50.33
74228;BME280;62587;52.352;5.006;2022-08-01T10:05:02;101945.31;;;25.06;49.90
74228;BME280;62587;52.352;5.006;2022-08-01T10:07:27;101941.69;;;25.07;49.50
74228;BME280;62587;52.352;5.006;2022-08-01T10:09:53;101932.47;;;24.99;49.66
74228;BME280;62587;52.352;5.006;2022-08-01T10:12:21;101942.34;;;24.98;49.33
74228;BME280;62587;52.352;5.006;2022-08-01T10:14:48;101950.28;;;25.00;48.96
74228;BME280;62587;52.352;5.006;2022-08-01T10:17:19;101946.00;;;24.97;49.00
74228;BME280;62587;52.352;5.006;2022-08-01T10:19:46;101945.00;;;24.98;48.78
74228;BME280;62587;52.352;5.006;2022-08-01T10:22:13;101931.75;;;24.97;48.47
74228;BME280;62587;52.352;5.006;2022-08-01T10:24:44;101937.44;;;24.92;48.33
74228;BME280;62587;52.352;5.006;2022-08-01T10:27:14;101949.03;;;24.93;48.56
74228;BME280;62587;52.352;5.006;2022-08-01T10:29:48;101945.25;;;24.95;49.04
74228;BME280;62587;52.352;5.006;2022-08-01T10:32:15;101945.75;;;25.00;48.72
74228;BME280;62587;52.352;5.006;2022-08-01T10:34:41;101942.34;;;24.98;48.78
74228;BME280;62587;52.352;5.006;2022-08-01T10:37:07;101941.38;;;24.99;48.49
74228;BME280;62587;52.352;5.006;2022-08-01T10:39:33;101945.88;;;24.99;48.74
74228;BME280;62587;52.352;5.006;2022-08-01T10:41:59;101949.53;;;24.98;48.60
74228;BME280;62587;52.352;5.006;2022-08-01T10:44:27;101948.91;;;24.94;48.31
74228;BME280;62587;52.352;5.006;2022-08-01T10:46:59;101943.53;;;24.94;48.67
74228;BME280;62587;52.352;5.006;2022-08-01T10:49:29;101945.75;;;25.00;48.25
74228;BME280;62587;52.352;5.006;2022-08-01T10:51:55;101943.84;;;25.02;48.49
74228;BME280;62587;52.352;5.006;2022-08-01T10:54:24;101951.75;;;25.04;48.21
74228;BME280;62587;52.352;5.006;2022-08-01T10:56:50;101934.22;;;25.00;48.43
74228;BME280;62587;52.352;5.006;2022-08-01T10:59:27;101951.75;;;25.04;48.04
74228;BME280;62587;52.352;5.006;2022-08-01T11:02:03;101957.34;;;25.01;48.49
74228;BME280;62587;52.352;5.006;2022-08-01T11:04:44;101956.25;;;25.03;48.16
74228;BME280;62587;52.352;5.006;2022-08-01T11:07:17;101953.38;;;25.06;48.35
74228;BME280;62587;52.352;5.006;2022-08-01T11:09:58;101959.47;;;25.08;48.21
74228;BME280;62587;52.352;5.006;2022-08-01T11:12:38;101962.13;;;25.08;48.17
74228;BME280;62587;52.352;5.006;2022-08-01T11:17:44;101975.31;;;25.11;48.37
74228;BME280;62587;52.352;5.006;2022-08-01T11:20:55;101977.03;;;25.12;48.43
74228;BME280;62587;52.352;5.006;2022-08-01T11:23:16;101970.91;;;25.10;48.41
74228;BME280;62587;52.352;5.006;2022-08-01T11:38:36;101961.06;;;25.11;47.92
74228;BME280;62587;52.352;5.006;2022-08-01T11:41:13;101962.88;;;25.10;47.99
74228;BME280;62587;52.352;5.006;2022-08-01T11:43:55;101961.94;;;25.11;47.92
74228;BME280;62587;52.352;5.006;2022-08-01T11:46:51;101969.22;;;25.09;47.67
74228;BME280;62587;52.352;5.006;2022-08-01T11:52:14;101969.97;;;25.11;47.32
74228;BME280;62587;52.352;5.006;2022-08-01T11:54:46;101973.25;;;25.15;47.14
74228;BME280;62587;52.352;5.006;2022-08-01T11:57:23;101968.88;;;25.14;46.91
74228;BME280;62587;52.352;5.006;2022-08-01T11:59:57;101965.47;;;25.12;47.18
74228;BME280;62587;52.352;5.006;2022-08-01T12:02:27;101969.75;;;25.14;47.32
74228;BME280;62587;52.352;5.006;2022-08-01T12:04:59;101968.88;;;25.14;47.05
74228;BME280;62587;52.352;5.006;2022-08-01T12:07:26;101971.44;;;25.15;47.11
74228;BME280;62587;52.352;5.006;2022-08-01T12:10:05;101982.06;;;25.17;46.90
74228;BME280;62587;52.352;5.006;2022-08-01T12:12:32;101968.75;;;25.15;46.72
74228;BME280;62587;52.352;5.006;2022-08-01T12:15:03;101972.31;;;25.16;46.50
74228;BME280;62587;52.352;5.006;2022-08-01T12:17:42;101968.34;;;25.21;46.57
74228;BME280;62587;52.352;5.006;2022-08-01T12:20:10;101970.03;;;25.22;46.53
74228;BME280;62587;52.352;5.006;2022-08-01T12:22:36;101970.88;;;25.23;46.66
74228;BME280;62587;52.352;5.006;2022-08-01T12:27:32;101968.09;;;25.24;46.64
74228;BME280;62587;52.352;5.006;2022-08-01T12:29:58;101975.03;;;25.27;45.84
74228;BME280;62587;52.352;5.006;2022-08-01T12:32:32;101952.91;;;25.12;45.98
74228;BME280;62587;52.352;5.006;2022-08-01T12:35:03;101979.44;;;25.28;46.14
74228;BME280;62587;52.352;5.006;2022-08-01T12:37:29;101975.78;;;25.29;46.25
74228;BME280;62587;52.352;5.006;2022-08-01T12:39:55;101980.19;;;25.30;46.14
74228;BME280;62587;52.352;5.006;2022-08-01T12:42:21;101981.78;;;25.33;45.87
74228;BME280;62587;52.352;5.006;2022-08-01T12:44:48;101979.97;;;25.33;46.17
74228;BME280;62587;52.352;5.006;2022-08-01T12:47:18;101977.91;;;25.37;46.30
74228;BME280;62587;52.352;5.006;2022-08-01T12:49:44;101973.94;;;25.42;45.96
74228;BME280;62587;52.352;5.006;2022-08-01T12:52:11;101975.75;;;25.42;46.22
74228;BME280;62587;52.352;5.006;2022-08-01T12:57:27;101976.72;;;25.41;45.92
74228;BME280;62587;52.352;5.006;2022-08-01T12:59:53;101974.41;;;25.36;45.91
74228;BME280;62587;52.352;5.006;2022-08-01T13:02:33;101981.09;;;25.42;45.86
74228;BME280;62587;52.352;5.006;2022-08-01T13:04:59;101987.47;;;25.41;45.80
74228;BME280;62587;52.352;5.006;2022-08-01T13:07:45;101981.97;;;25.42;45.71
74228;BME280;62587;52.352;5.006;2022-08-01T13:10:12;101979.28;;;25.42;45.82
74228;BME280;62587;52.352;5.006;2022-08-01T13:12:39;101971.13;;;25.44;45.39
74228;BME280;62587;52.352;5.006;2022-08-01T13:17:50;101967.53;;;25.32;45.78
74228;BME280;62587;52.352;5.006;2022-08-01T13:20:26;101962.91;;;25.34;45.51
74228;BME280;62587;52.352;5.006;2022-08-01T13:22:52;101967.31;;;25.35;45.78
74228;BME280;62587;52.352;5.006;2022-08-01T13:25:17;101969.66;;;25.40;45.62
74228;BME280;62587;52.352;5.006;2022-08-01T13:27:43;101975.00;;;25.40;45.67
74228;BME280;62587;52.352;5.006;2022-08-01T13:30:15;101970.72;;;25.37;45.47
74228;BME280;62587;52.352;5.006;2022-08-01T13:32:41;101955.84;;;25.33;45.63